Alice Springs Airport (ASP/YBAS)




Flight Aircraft Arriving
CMB7616 B744
B77L
PHNL - Daniel K Inouye International Airport
United StatesHawaii Honolulu, Hawaii
CPX9090 B744
B77L
YSSY - Kingsford Smith International Airport
Australia Sydney, Australia
Flight Aircraft Departing
CMB7615 B744
B77L
PHNL - Daniel K Inouye International Airport
United StatesHawaii Honolulu, Hawaii
Airport Information
Location: Alice Springs, AU
Coordinates: -23.8067 / 133.902
Elevation:
Time Offset:
Local Time:
UTC Time:
Jet A Price: $/lbs

Current Weather
METAR: YBAS 232000Z AUTO 12012KT 9999 // NCD 27/07 Q1011 RF00.0/000.0
TAF: TAF YBAS 231724Z 2318/2418 12014KT CAVOK FM232000 13020KT CAVOK FM240400 12012KT CAVOK

Recent Arrivals
Date Flight Type Depart
12/01/2019 CMB7615 B744 Daniel K Inouye International Airport (PHNL)
11/22/2019 CMB7615 B744 Daniel K Inouye International Airport (PHNL)
10/02/2019 CMB815 B744 Daniel K Inouye International Airport (PHNL)
Recent Departures
Date Flight Type Arrive
11/23/2019 CPX9090 B744 Kingsford Smith International Airport (YSSY)
10/03/2019 CPX990 B744 Kingsford Smith International Airport (YSSY)